createdAt,value
2019-04-04T00:00:03.835Z,1002.27
2019-04-04T00:10:05.241Z,1002.17
2019-04-04T00:20:03.061Z,1002.15
2019-04-04T00:30:04.616Z,1001.86
2019-04-04T00:40:02.967Z,1001.79
2019-04-04T00:50:07.184Z,1001.62
2019-04-04T01:00:03.890Z,1001.42
2019-04-04T01:10:03.397Z,1001.32
2019-04-04T01:20:03.311Z,1001.16
2019-04-04T01:30:04.071Z,1001.14
2019-04-04T01:40:04.062Z,1000.99
2019-04-04T01:50:03.773Z,1001.00
2019-04-04T02:00:04.057Z,1000.93
2019-04-04T02:10:06.472Z,1000.69
2019-04-04T02:20:03.421Z,1000.66
2019-04-04T02:30:03.700Z,1000.50
2019-04-04T02:40:05.946Z,1000.34
2019-04-04T02:50:03.121Z,1000.12
2019-04-04T03:00:04.053Z,1000.14
2019-04-04T03:10:03.527Z,999.82
2019-04-04T03:20:03.563Z,999.70
2019-04-04T03:30:04.223Z,999.49
2019-04-04T03:40:03.965Z,999.33
2019-04-04T03:50:03.573Z,999.12
2019-04-04T04:00:08.372Z,998.99
2019-04-04T04:10:03.647Z,998.83
2019-04-04T04:20:05.450Z,998.67
2019-04-04T04:30:08.139Z,998.36
2019-04-04T04:40:03.620Z,998.13
2019-04-04T04:50:03.230Z,997.98
2019-04-04T05:00:04.515Z,997.88
2019-04-04T05:10:02.797Z,997.94
2019-04-04T05:20:03.588Z,997.75
2019-04-04T05:30:04.132Z,997.49
2019-04-04T05:40:03.440Z,997.31
2019-04-04T05:50:02.983Z,997.18
2019-04-04T06:00:03.792Z,996.74
2019-04-04T06:10:03.521Z,996.42
2019-04-04T06:20:03.178Z,996.46
2019-04-04T06:30:04.587Z,996.26
2019-04-04T06:40:03.107Z,995.86
2019-04-04T06:50:06.992Z,995.64
2019-04-04T07:00:04.337Z,995.43
2019-04-04T07:10:03.707Z,995.29
2019-04-04T07:20:03.317Z,995.41
2019-04-04T07:30:04.388Z,995.48
2019-04-04T07:40:04.918Z,995.30
2019-04-04T07:50:03.348Z,995.15
2019-04-04T08:00:04.398Z,995.13
2019-04-04T08:10:03.610Z,995.10
2019-04-04T08:20:03.534Z,995.06
2019-04-04T08:30:03.909Z,995.01
2019-04-04T08:40:03.149Z,995.05
2019-04-04T08:50:03.511Z,995.02
2019-04-04T09:00:04.631Z,995.03
2019-04-04T09:10:03.376Z,995.13
2019-04-04T09:20:03.860Z,995.51
2019-04-04T09:30:04.274Z,995.84
2019-04-04T09:40:03.392Z,996.00
2019-04-04T09:50:02.897Z,996.19
2019-04-04T10:00:07.606Z,996.26
2019-04-04T10:10:03.316Z,996.21
2019-04-04T10:20:03.263Z,996.47
2019-04-04T10:30:06.170Z,996.41
2019-04-04T10:40:03.632Z,996.42
2019-04-04T10:50:03.613Z,996.59
2019-04-04T11:00:04.250Z,996.59
2019-04-04T11:10:03.675Z,996.52
2019-04-04T11:20:03.630Z,996.56
2019-04-04T11:30:04.064Z,996.56
2019-04-04T11:40:03.718Z,996.52
2019-04-04T11:50:03.315Z,996.46
2019-04-04T12:00:04.376Z,996.51
2019-04-04T12:10:08.888Z,996.52
2019-04-04T12:20:03.851Z,996.51
2019-04-04T12:30:04.293Z,996.51
2019-04-04T12:40:03.685Z,996.51
2019-04-04T12:50:03.776Z,996.46
2019-04-04T13:00:03.747Z,996.59
2019-04-04T13:10:12.712Z,996.76
2019-04-04T13:20:03.696Z,996.83
2019-04-04T13:30:06.838Z,997.01
2019-04-04T13:40:02.975Z,997.31
2019-04-04T13:50:03.967Z,997.50
2019-04-04T14:00:04.587Z,997.89
2019-04-04T14:10:03.570Z,998.14
2019-04-04T14:20:02.978Z,998.22
2019-04-04T14:30:04.688Z,998.74
2019-04-04T14:40:03.086Z,999.02
2019-04-04T14:50:05.605Z,999.27
2019-04-04T15:00:04.578Z,999.26
2019-04-04T15:10:03.526Z,999.32
2019-04-04T15:20:03.250Z,999.49
2019-04-04T15:30:04.860Z,999.69
2019-04-04T15:40:03.257Z,999.72
2019-04-04T15:50:03.748Z,999.89
2019-04-04T16:00:03.600Z,1000.10
2019-04-04T16:10:02.982Z,1000.44
2019-04-04T16:20:02.763Z,1000.49
2019-04-04T16:30:04.316Z,1000.59
2019-04-04T16:40:10.192Z,1001.05
2019-04-04T16:50:04.231Z,1001.36
2019-04-04T17:00:04.501Z,1001.66
2019-04-04T17:10:03.091Z,1001.68
2019-04-04T17:20:02.880Z,1001.79
2019-04-04T17:30:05.064Z,1002.16
2019-04-04T17:40:03.149Z,1002.10
2019-04-04T17:50:04.344Z,1002.37
2019-04-04T18:00:03.996Z,1002.66
2019-04-04T18:10:03.538Z,1003.04
2019-04-04T18:20:03.904Z,1003.01
2019-04-04T18:30:04.338Z,1003.22
2019-04-04T18:40:02.952Z,1003.41
2019-04-04T18:50:03.990Z,1003.79
2019-04-04T19:00:04.074Z,1003.90
2019-04-04T19:10:03.289Z,1003.88
2019-04-04T19:20:02.939Z,1004.08
2019-04-04T19:30:04.688Z,1004.30
2019-04-04T19:40:03.425Z,1004.35
2019-04-04T19:50:03.711Z,1004.59
2019-04-04T20:00:05.298Z,1004.44
2019-04-04T20:10:03.682Z,1004.51
2019-04-04T20:20:03.587Z,1004.83
2019-04-04T20:30:04.397Z,1004.96
2019-04-04T20:40:03.568Z,1005.07
2019-04-04T20:50:02.850Z,1005.05
2019-04-04T21:00:03.540Z,1005.29
2019-04-04T21:10:03.939Z,1005.42
2019-04-04T21:20:04.191Z,1005.52
2019-04-04T21:30:04.128Z,1005.65
2019-04-04T21:40:04.233Z,1005.61
2019-04-04T21:50:02.788Z,1005.58
2019-04-04T22:00:04.466Z,1005.71
2019-04-04T22:10:03.155Z,1005.58
2019-04-04T22:20:03.334Z,1005.61
2019-04-04T22:30:04.555Z,1005.59
2019-04-04T22:40:02.899Z,1005.69
2019-04-04T22:50:03.363Z,1005.55
2019-04-04T23:00:04.290Z,1005.66
2019-04-04T23:10:02.932Z,1005.66
2019-04-04T23:20:03.734Z,1005.70
2019-04-04T23:30:04.459Z,1005.52
2019-04-04T23:40:03.994Z,1005.27
2019-04-04T23:50:03.421Z,1005.51
